Time;durP1;ratioP1;P1;durP2;ratioP2;P2;SDS_P1;SDS_P2;PMS_P1;PMS_P2;Temp;Humidity;BMP_temperature;BMP_pressure;BME280_temperature;BME280_humidity;BME280_pressure;Samples;Min_cycle;Max_cycle;Signal;HPM_P1;HPM_P2
2022/12/05 00:00:59;;;;;;;11.93;6.00;;;1.40;99.90;;;;;;5012330;28;20450;-67
2022/12/05 00:03:25;;;;;;;16.33;7.63;;;1.40;99.90;;;;;;5015885;28;20432;-67
2022/12/05 00:05:51;;;;;;;13.40;6.73;;;1.40;99.90;;;;;;5023889;28;20564;-68
2022/12/05 00:08:16;;;;;;;22.33;7.90;;;1.40;99.90;;;;;;5011280;28;20528;-67
2022/12/05 00:10:42;;;;;;;21.00;8.40;;;1.40;99.90;;;;;;5010215;28;20566;-67
2022/12/05 00:13:09;;;;;;;15.80;8.40;;;1.50;99.90;;;;;;5011727;28;20684;-67
2022/12/05 00:15:39;;;;;;;20.13;7.87;;;1.50;99.90;;;;;;5011619;28;20442;-67
2022/12/05 00:18:05;;;;;;;14.40;7.33;;;1.60;99.90;;;;;;5009508;28;21212;-67
2022/12/05 00:20:31;;;;;;;13.17;6.57;;;1.60;99.90;;;;;;5011995;28;20513;-67
2022/12/05 00:22:57;;;;;;;15.07;6.70;;;1.50;99.90;;;;;;5011664;28;20428;-68
2022/12/05 00:25:22;;;;;;;31.17;6.30;;;1.50;99.90;;;;;;5008879;28;20950;-67
2022/12/05 00:27:48;;;;;;;13.33;6.30;;;1.50;99.90;;;;;;5006482;28;20187;-67
2022/12/05 00:30:14;;;;;;;19.80;7.70;;;1.50;99.90;;;;;;5007614;28;20199;-68
2022/12/05 00:32:39;;;;;;;15.13;6.80;;;1.50;99.90;;;;;;5007539;28;20290;-67
2022/12/05 00:35:05;;;;;;;28.43;7.90;;;1.60;99.90;;;;;;5007717;28;20257;-67
2022/12/05 00:37:31;;;;;;;22.87;8.57;;;1.60;99.90;;;;;;5010963;28;20199;-68
2022/12/05 00:39:56;;;;;;;17.20;7.27;;;1.60;99.90;;;;;;5009841;28;20270;-67
2022/12/05 00:42:22;;;;;;;15.03;7.43;;;1.60;99.90;;;;;;5008356;28;20218;-68
2022/12/05 00:44:50;;;;;;;17.57;7.73;;;1.50;99.90;;;;;;5008449;28;20218;-67
2022/12/05 00:47:16;;;;;;;15.23;6.50;;;1.60;99.90;;;;;;5009727;28;20195;-67
2022/12/05 00:49:41;;;;;;;19.97;7.77;;;1.60;99.90;;;;;;5010662;28;20445;-67
2022/12/05 00:52:07;;;;;;;14.23;6.93;;;1.60;99.90;;;;;;5009335;28;20190;-67
2022/12/05 00:54:33;;;;;;;15.97;6.50;;;1.60;99.90;;;;;;5008614;28;20612;-67
2022/12/05 00:56:58;;;;;;;12.57;6.20;;;1.60;99.90;;;;;;5010061;28;20313;-67
2022/12/05 00:59:24;;;;;;;13.33;6.70;;;1.60;99.90;;;;;;5011103;28;20191;-67
2022/12/05 01:01:50;;;;;;;19.53;7.67;;;1.60;99.90;;;;;;5010920;28;20185;-68
2022/12/05 01:04:19;;;;;;;18.70;7.50;;;1.60;99.90;;;;;;5010042;28;20217;-67
2022/12/05 01:06:44;;;;;;;13.57;6.00;;;1.60;99.90;;;;;;5011305;28;20424;-67
2022/12/05 01:09:13;;;;;;;12.70;6.27;;;1.60;99.90;;;;;;5011233;28;20422;-67
2022/12/05 01:11:39;;;;;;;25.73;7.90;;;1.60;99.90;;;;;;5009929;28;20183;-67
2022/12/05 01:14:04;;;;;;;26.37;6.23;;;1.50;99.90;;;;;;5008143;28;20930;-67
2022/12/05 01:16:35;;;;;;;21.33;7.00;;;1.50;99.90;;;;;;5009969;28;20441;-67
2022/12/05 01:19:04;;;;;;;12.60;6.10;;;1.50;99.90;;;;;;5009970;28;20671;-68
2022/12/05 01:21:30;;;;;;;12.73;6.33;;;1.50;99.90;;;;;;5010005;28;20461;-67
2022/12/05 01:23:56;;;;;;;13.67;6.53;;;1.50;99.90;;;;;;5006443;28;20884;-67
2022/12/05 01:26:22;;;;;;;18.47;8.23;;;1.50;99.90;;;;;;5013595;28;20190;-67
2022/12/05 01:28:47;;;;;;;14.47;6.97;;;1.50;99.90;;;;;;5009002;28;20211;-68
2022/12/05 01:31:22;;;;;;;17.83;7.07;;;1.50;99.90;;;;;;5010485;28;20830;-67
2022/12/05 01:33:48;;;;;;;16.33;7.87;;;1.50;99.90;;;;;;5008470;28;20289;-67
2022/12/05 01:36:14;;;;;;;23.40;7.40;;;1.50;99.90;;;;;;5010294;28;20442;-67
2022/12/05 01:38:42;;;;;;;12.50;7.73;;;1.50;99.90;;;;;;5010025;28;20449;-67
2022/12/05 01:41:11;;;;;;;17.93;8.07;;;1.50;99.90;;;;;;5009454;28;20530;-67
2022/12/05 01:44:02;;;;;;;21.50;6.63;;;1.50;99.90;;;;;;5007607;28;20571;-67
2022/12/05 01:46:31;;;;;;;18.10;7.53;;;1.40;99.90;;;;;;5009242;28;20781;-67
2022/12/05 01:49:06;;;;;;;18.20;7.27;;;1.40;99.90;;;;;;5010399;28;20512;-67
2022/12/05 01:51:33;;;;;;;14.70;6.47;;;1.40;99.90;;;;;;5004079;28;20516;-67
2022/12/05 01:54:00;;;;;;;15.30;6.60;;;1.40;99.90;;;;;;5009141;28;20457;-67
2022/12/05 01:56:25;;;;;;;15.43;7.30;;;1.50;99.90;;;;;;5008683;28;20438;-67
2022/12/05 01:58:52;;;;;;;16.70;8.30;;;1.50;99.90;;;;;;5004238;28;20441;-67
2022/12/05 02:01:18;;;;;;;15.67;7.03;;;1.50;99.90;;;;;;5008275;28;20187;-67
2022/12/05 02:03:49;;;;;;;24.83;9.33;;;1.50;99.90;;;;;;5008137;28;20461;-68
2022/12/05 02:06:15;;;;;;;17.73;7.80;;;1.50;99.90;;;;;;5008328;28;20450;-67
2022/12/05 02:08:42;;;;;;;22.07;8.47;;;1.50;99.90;;;;;;5011814;28;20416;-67
2022/12/05 02:11:08;;;;;;;16.80;8.07;;;1.50;99.90;;;;;;5013432;28;20434;-67
2022/12/05 02:13:55;;;;;;;18.10;8.77;;;1.50;99.90;;;;;;5012066;28;20414;-67
2022/12/05 02:17:12;;;;;;;22.90;8.67;;;1.50;99.90;;;;;;5010954;28;20895;-67
2022/12/05 02:20:07;;;;;;;14.20;6.90;;;1.50;99.90;;;;;;4981378;28;20891;-67
2022/12/05 02:23:01;;;;;;;18.20;7.67;;;1.60;99.90;;;;;;5006057;28;20445;-67
2022/12/05 02:25:45;;;;;;;18.07;6.77;;;1.60;99.90;;;;;;5015107;28;20469;-67
2022/12/05 02:28:41;;;;;;;16.63;7.63;;;1.60;99.90;;;;;;5011467;28;20445;-68
2022/12/05 02:31:14;;;;;;;28.27;7.93;;;1.60;99.90;;;;;;5008628;28;20846;-67
2022/12/05 02:33:43;;;;;;;17.23;6.13;;;1.70;99.90;;;;;;5011421;28;20497;-67
2022/12/05 02:36:09;;;;;;;13.33;7.13;;;1.70;99.90;;;;;;5011657;28;20438;-67
2022/12/05 02:39:19;;;;;;;19.57;8.47;;;1.70;99.90;;;;;;5012724;28;20484;-67
2022/12/05 02:41:50;;;;;;;23.70;8.50;;;1.70;99.90;;;;;;4995343;28;20209;-67
2022/12/05 02:44:31;;;;;;;14.27;7.97;;;1.70;99.90;;;;;;5009389;28;20500;-67
2022/12/05 02:46:58;;;;;;;19.93;6.70;;;1.80;99.90;;;;;;5012198;28;20512;-67
2022/12/05 02:49:30;;;;;;;20.20;7.80;;;1.80;99.90;;;;;;5011665;28;20460;-67
2022/12/05 02:51:58;;;;;;;18.77;8.73;;;1.80;99.90;;;;;;5012545;28;21221;-67
2022/12/05 02:54:28;;;;;;;15.50;7.50;;;1.80;99.90;;;;;;5005248;28;20461;-67
2022/12/05 02:56:56;;;;;;;20.63;7.80;;;1.80;99.90;;;;;;5009519;28;20442;-67
2022/12/05 02:59:21;;;;;;;14.30;7.20;;;1.90;99.90;;;;;;5012405;28;20911;-67
2022/12/05 03:01:48;;;;;;;16.90;6.50;;;1.90;99.90;;;;;;5012220;28;20469;-68
2022/12/05 03:04:15;;;;;;;20.43;7.17;;;1.90;99.90;;;;;;5012035;28;20203;-67
2022/12/05 03:06:44;;;;;;;18.63;6.40;;;1.90;99.90;;;;;;5013567;28;20956;-67
2022/12/05 03:09:33;;;;;;;21.20;7.47;;;2.00;99.90;;;;;;5011851;28;20816;-67
2022/12/05 03:12:09;;;;;;;19.10;7.73;;;2.00;99.90;;;;;;5013021;28;20421;-68
2022/12/05 03:14:42;;;;;;;16.17;6.60;;;1.90;99.90;;;;;;5012690;28;20440;-68
2022/12/05 03:17:12;;;;;;;13.67;6.50;;;1.90;99.90;;;;;;5013043;28;20879;-67
2022/12/05 03:19:52;;;;;;;15.80;7.17;;;1.90;99.90;;;;;;5013036;28;20445;-67
2022/12/05 03:22:29;;;;;;;14.60;6.63;;;2.00;99.90;;;;;;5012052;28;20519;-67
2022/12/05 03:24:54;;;;;;;9.40;4.90;;;2.00;99.90;;;;;;5015373;28;20514;-67
2022/12/05 03:27:49;;;;;;;14.43;6.97;;;2.00;99.90;;;;;;5013230;28;20426;-67
2022/12/05 03:30:21;;;;;;;14.53;5.27;;;2.00;99.90;;;;;;5010751;28;20193;-67
2022/12/05 03:33:09;;;;;;;17.77;7.40;;;2.00;99.90;;;;;;5008776;28;21310;-67
2022/12/05 03:35:37;;;;;;;22.40;8.60;;;2.00;99.90;;;;;;5009204;28;20460;-67
2022/12/05 03:38:16;;;;;;;22.60;7.53;;;2.00;99.90;;;;;;5011906;28;20477;-67
2022/12/05 03:40:48;;;;;;;18.87;7.43;;;2.00;99.90;;;;;;5010937;28;20476;-66
2022/12/05 03:43:29;;;;;;;14.27;5.87;;;2.10;99.90;;;;;;5010356;28;20430;-66
2022/12/05 03:46:02;;;;;;;15.77;6.60;;;2.10;99.90;;;;;;5008989;28;20483;-67
2022/12/05 03:48:30;;;;;;;14.00;6.77;;;2.00;99.90;;;;;;5010496;28;20517;-67
2022/12/05 03:50:58;;;;;;;18.93;6.70;;;2.00;99.90;;;;;;5012018;28;20556;-67
2022/12/05 03:53:41;;;;;;;13.30;6.40;;;2.00;99.90;;;;;;5010425;28;20813;-67
2022/12/05 03:56:18;;;;;;;22.17;8.10;;;2.00;99.90;;;;;;5009855;28;20445;-66
2022/12/05 03:58:51;;;;;;;15.60;6.83;;;2.00;99.90;;;;;;5008430;28;20442;-67
2022/12/05 04:01:19;;;;;;;12.30;6.57;;;2.00;99.90;;;;;;5011376;28;20449;-67
2022/12/05 04:03:52;;;;;;;11.60;6.20;;;2.00;99.90;;;;;;5010606;28;20806;-66
2022/12/05 04:06:31;;;;;;;13.90;5.30;;;2.00;99.90;;;;;;5012241;28;20413;-66
2022/12/05 04:09:04;;;;;;;18.60;7.20;;;2.00;99.90;;;;;;5009063;28;20480;-66
2022/12/05 04:11:34;;;;;;;15.23;6.77;;;2.00;99.90;;;;;;5009075;28;20927;-67
2022/12/05 04:14:20;;;;;;;13.47;6.03;;;2.00;99.90;;;;;;5010758;28;20426;-67
2022/12/05 04:17:04;;;;;;;18.70;6.30;;;1.90;99.90;;;;;;5011470;28;20475;-67
2022/12/05 04:22:27;;;;;;;22.30;7.40;;;1.90;99.90;;;;;;5013664;28;20459;-66
2022/12/05 04:27:49;;;;;;;20.13;6.70;;;1.90;99.90;;;;;;5009752;28;20432;-67
2022/12/05 04:30:24;;;;;;;10.73;4.80;;;1.90;99.90;;;;;;5008743;28;20445;-67
2022/12/05 04:33:14;;;;;;;10.00;5.67;;;1.80;99.90;;;;;;5007381;28;20452;-67
2022/12/05 04:36:12;;;;;;;9.20;4.70;;;1.80;99.90;;;;;;5014139;28;20430;-67
2022/12/05 04:38:40;;;;;;;14.23;6.87;;;1.80;99.90;;;;;;4995789;28;20554;-67
2022/12/05 04:41:13;;;;;;;11.43;6.13;;;1.80;99.90;;;;;;5009143;28;20438;-67
2022/12/05 04:43:41;;;;;;;12.67;5.00;;;1.80;99.90;;;;;;5006474;28;20442;-67
2022/12/05 04:46:10;;;;;;;13.20;5.90;;;1.80;99.90;;;;;;5010457;28;20453;-67
2022/12/05 04:48:39;;;;;;;16.97;5.83;;;1.80;99.90;;;;;;5008767;28;20527;-67
2022/12/05 04:51:08;;;;;;;13.77;5.90;;;1.70;99.90;;;;;;5008188;28;20453;-67
2022/12/05 04:53:35;;;;;;;14.20;6.90;;;1.70;99.90;;;;;;5008395;28;20750;-66
2022/12/05 04:56:03;;;;;;;12.10;4.70;;;1.70;99.90;;;;;;5009144;28;20561;-66
2022/12/05 04:58:29;;;;;;;11.37;6.23;;;1.70;99.90;;;;;;5009891;28;20434;-66
2022/12/05 05:01:16;;;;;;;12.37;6.03;;;1.70;99.90;;;;;;5010818;28;20430;-66
2022/12/05 05:03:49;;;;;;;11.03;5.03;;;1.70;99.90;;;;;;5009714;28;20453;-67
2022/12/05 05:06:15;;;;;;;16.33;5.07;;;1.70;99.90;;;;;;5010515;28;21019;-67
2022/12/05 05:08:52;;;;;;;11.90;4.67;;;1.80;99.90;;;;;;5008617;28;20444;-67
2022/12/05 05:11:20;;;;;;;9.57;4.00;;;1.80;99.90;;;;;;5010069;28;20429;-67
2022/12/05 05:13:46;;;;;;;10.97;5.60;;;1.90;99.90;;;;;;5020391;28;20743;-66
2022/12/05 05:16:16;;;;;;;15.00;5.60;;;1.90;99.90;;;;;;5020563;28;20901;-67
2022/12/05 05:18:43;;;;;;;10.00;5.53;;;1.90;99.90;;;;;;5010224;28;20426;-67
2022/12/05 05:21:15;;;;;;;10.30;4.73;;;1.90;99.90;;;;;;5019771;28;20440;-67
2022/12/05 05:23:40;;;;;;;18.50;7.03;;;1.90;99.90;;;;;;5008913;28;20442;-66
2022/12/05 05:26:06;;;;;;;11.40;5.27;;;1.90;99.90;;;;;;5009600;28;20464;-67
2022/12/05 05:28:31;;;;;;;11.43;5.40;;;2.00;99.90;;;;;;5009567;28;20175;-67
2022/12/05 05:31:04;;;;;;;11.73;5.70;;;2.00;99.90;;;;;;5003511;28;20284;-67
2022/12/05 05:33:30;;;;;;;9.47;4.97;;;2.00;99.90;;;;;;5002345;28;20182;-66
2022/12/05 05:35:56;;;;;;;11.73;5.47;;;2.00;99.90;;;;;;5009043;28;20519;-67
2022/12/05 05:38:21;;;;;;;13.03;4.77;;;2.00;99.90;;;;;;4969107;28;1129380;-67
2022/12/05 05:40:47;;;;;;;11.40;5.30;;;2.00;99.90;;;;;;5010733;28;20258;-67
2022/12/05 05:43:12;;;;;;;17.37;5.43;;;2.00;99.90;;;;;;5011109;28;20671;-67
2022/12/05 05:45:38;;;;;;;14.57;6.30;;;2.00;99.90;;;;;;5011446;28;20293;-67
2022/12/05 05:48:04;;;;;;;17.63;6.03;;;2.00;99.90;;;;;;5013917;28;20175;-67
2022/12/05 05:50:30;;;;;;;14.17;6.00;;;2.00;99.90;;;;;;5013674;28;20206;-67
2022/12/05 05:52:55;;;;;;;16.83;6.00;;;2.00;99.90;;;;;;5013530;28;20183;-67
2022/12/05 05:55:21;;;;;;;11.63;5.50;;;2.00;99.90;;;;;;5012059;28;20236;-66
2022/12/05 05:57:46;;;;;;;11.33;4.60;;;2.00;99.90;;;;;;5010798;28;20626;-66
2022/12/05 06:00:13;;;;;;;11.27;5.60;;;2.00;99.90;;;;;;5013289;28;20187;-67
2022/12/05 06:02:38;;;;;;;14.87;7.80;;;2.10;99.90;;;;;;5012945;28;20631;-67
2022/12/05 06:05:04;;;;;;;13.20;6.63;;;2.10;99.90;;;;;;5012589;28;20465;-67
2022/12/05 06:07:30;;;;;;;11.40;6.10;;;2.10;99.90;;;;;;5011428;28;20520;-67
2022/12/05 06:09:56;;;;;;;12.37;4.77;;;2.10;99.90;;;;;;5012782;28;20434;-67
2022/12/05 06:12:22;;;;;;;13.67;5.13;;;2.10;99.90;;;;;;5013155;28;20524;-67
2022/12/05 06:14:48;;;;;;;9.93;5.30;;;2.10;99.90;;;;;;5013613;28;20194;-69
2022/12/05 06:17:14;;;;;;;9.13;5.07;;;2.10;99.90;;;;;;5014287;28;20509;-67
2022/12/05 06:19:40;;;;;;;14.97;4.77;;;2.10;99.90;;;;;;5013884;28;20524;-66
2022/12/05 06:22:05;;;;;;;9.27;4.43;;;2.10;99.90;;;;;;5015576;28;20230;-67
2022/12/05 06:24:31;;;;;;;11.07;5.00;;;2.20;99.90;;;;;;5012753;28;20524;-67
2022/12/05 06:26:56;;;;;;;14.77;5.47;;;2.20;99.90;;;;;;5016521;28;20186;-68
2022/12/05 06:29:22;;;;;;;10.07;5.13;;;2.20;99.90;;;;;;5012306;28;20692;-68
2022/12/05 06:31:48;;;;;;;12.30;5.33;;;2.30;99.90;;;;;;5011134;28;20182;-68
2022/12/05 06:34:13;;;;;;;8.27;4.50;;;2.30;99.90;;;;;;5007579;28;20191;-67
2022/12/05 06:36:39;;;;;;;12.80;5.80;;;2.30;99.90;;;;;;5012188;28;20644;-68
2022/12/05 06:39:04;;;;;;;12.23;5.10;;;2.40;99.90;;;;;;5011660;28;20217;-67
2022/12/05 06:41:30;;;;;;;13.60;5.87;;;2.30;99.90;;;;;;5010520;28;20187;-67
2022/12/05 06:43:57;;;;;;;18.17;6.10;;;2.40;99.90;;;;;;5011752;28;20275;-67
2022/12/05 06:46:24;;;;;;;9.97;5.40;;;2.40;99.90;;;;;;5013558;28;20718;-67
2022/12/05 06:48:54;;;;;;;9.03;4.20;;;2.40;99.90;;;;;;5013553;28;20475;-67
2022/12/05 06:51:20;;;;;;;13.80;4.90;;;2.30;99.90;;;;;;5012706;28;20512;-67
2022/12/05 06:53:45;;;;;;;7.17;4.30;;;2.40;99.90;;;;;;5000979;28;20461;-67
2022/12/05 06:56:14;;;;;;;7.27;4.57;;;2.40;99.90;;;;;;5022192;28;20187;-68
2022/12/05 06:58:44;;;;;;;9.17;5.33;;;2.40;99.90;;;;;;5012762;28;20679;-70
2022/12/05 07:03:59;;;;;;;6.30;4.17;;;2.50;99.90;;;;;;5007288;28;20412;-69
2022/12/05 07:06:25;;;;;;;10.20;4.37;;;2.40;99.90;;;;;;5012847;28;20429;-68
2022/12/05 07:08:51;;;;;;;8.90;4.03;;;2.40;99.90;;;;;;5012327;28;20430;-68
2022/12/05 07:11:16;;;;;;;12.93;4.60;;;2.40;99.90;;;;;;5012820;28;20437;-68
2022/12/05 07:13:42;;;;;;;9.67;3.97;;;2.40;99.90;;;;;;5011520;28;20583;-68
2022/12/05 07:16:07;;;;;;;10.57;4.57;;;2.40;99.90;;;;;;5012777;28;20267;-69
2022/12/05 07:18:34;;;;;;;7.80;4.30;;;2.50;99.90;;;;;;5012622;28;20518;-69
2022/12/05 07:21:06;;;;;;;11.90;4.90;;;2.50;99.90;;;;;;5017369;28;20265;-68
2022/12/05 07:23:31;;;;;;;12.70;4.97;;;2.60;99.90;;;;;;5012225;28;20449;-68
2022/12/05 07:25:57;;;;;;;10.50;4.40;;;2.60;99.90;;;;;;5020159;28;20469;-68
2022/12/05 07:28:24;;;;;;;11.60;4.40;;;2.70;99.90;;;;;;5017782;28;20230;-68
2022/12/05 07:31:01;;;;;;;7.60;4.10;;;2.70;99.90;;;;;;5011870;28;20174;-68
2022/12/05 07:33:27;;;;;;;6.87;4.57;;;2.80;99.90;;;;;;5007505;28;20484;-69
2022/12/05 07:35:59;;;;;;;11.40;5.43;;;2.80;99.90;;;;;;5010991;28;20960;-68
2022/12/05 07:38:24;;;;;;;9.97;4.20;;;2.80;99.90;;;;;;5003783;28;20446;-68
2022/12/05 07:40:50;;;;;;;8.43;4.30;;;2.80;99.90;;;;;;5010266;28;20437;-68
2022/12/05 07:43:15;;;;;;;6.00;3.60;;;2.90;99.90;;;;;;5009303;28;20210;-69
2022/12/05 07:45:41;;;;;;;8.93;4.97;;;3.00;99.90;;;;;;5009493;28;20573;-68
2022/12/05 07:48:06;;;;;;;6.90;4.10;;;3.00;99.90;;;;;;5011143;28;20183;-68
2022/12/05 07:50:32;;;;;;;7.13;4.03;;;3.00;99.90;;;;;;5009464;28;20185;-68
2022/12/05 07:52:58;;;;;;;7.20;4.30;;;2.90;99.90;;;;;;5008706;28;20646;-69
2022/12/05 07:55:23;;;;;;;7.80;3.70;;;3.00;99.90;;;;;;5009323;28;20206;-68
2022/12/05 07:57:49;;;;;;;4.63;3.30;;;3.00;99.90;;;;;;5009769;28;20179;-68
2022/12/05 08:00:15;;;;;;;7.97;4.50;;;2.90;99.90;;;;;;5009058;28;20195;-68
2022/12/05 08:02:40;;;;;;;6.03;3.97;;;3.10;99.90;;;;;;5010238;28;20554;-69
2022/12/05 08:05:07;;;;;;;10.07;3.83;;;3.10;99.90;;;;;;5008034;28;20465;-68
2022/12/05 08:07:32;;;;;;;8.73;3.73;;;3.00;99.90;;;;;;5009591;28;20654;-68
2022/12/05 08:09:58;;;;;;;6.30;3.83;;;3.10;99.90;;;;;;5010313;28;20510;-68
2022/12/05 08:12:23;;;;;;;9.00;4.00;;;3.20;99.90;;;;;;5009322;28;20187;-68
2022/12/05 08:14:49;;;;;;;7.03;4.00;;;3.20;99.90;;;;;;5010172;28;20183;-69
2022/12/05 08:17:14;;;;;;;9.43;5.27;;;3.20;99.90;;;;;;5011036;28;20179;-68
2022/12/05 08:19:40;;;;;;;6.50;3.70;;;3.30;99.90;;;;;;5012132;28;20193;-68
2022/12/05 08:22:05;;;;;;;8.13;3.93;;;3.30;99.90;;;;;;5010976;28;20655;-68
2022/12/05 08:24:31;;;;;;;8.47;4.13;;;3.30;99.90;;;;;;5011261;28;20211;-68
2022/12/05 08:26:57;;;;;;;8.70;4.20;;;3.30;99.90;;;;;;5010320;28;20270;-69
2022/12/05 08:29:22;;;;;;;4.40;2.07;;;3.40;99.90;;;;;;5012442;28;20175;-69
2022/12/05 08:31:49;;;;;;;10.47;3.77;;;3.40;99.90;;;;;;5013274;28;20186;-69
2022/12/05 08:34:18;;;;;;;6.60;3.80;;;3.40;99.90;;;;;;5004984;28;20186;-68
2022/12/05 08:36:44;;;;;;;9.47;3.10;;;3.50;99.90;;;;;;5010183;28;20426;-68
2022/12/05 08:39:14;;;;;;;5.97;2.93;;;3.40;99.90;;;;;;5009383;28;20433;-69
2022/12/05 08:41:41;;;;;;;9.23;4.03;;;3.50;99.90;;;;;;5011520;28;20418;-69
2022/12/05 08:44:08;;;;;;;6.80;4.00;;;3.50;99.90;;;;;;5011720;28;20414;-69
2022/12/05 08:46:35;;;;;;;7.37;4.40;;;3.50;99.90;;;;;;5013469;28;20425;-69
2022/12/05 08:49:05;;;;;;;7.33;4.00;;;3.50;99.90;;;;;;5012605;28;20422;-69
2022/12/05 08:51:31;;;;;;;14.03;4.27;;;3.50;99.90;;;;;;5002701;28;20777;-69
2022/12/05 08:53:56;;;;;;;6.80;3.70;;;3.60;99.90;;;;;;5011771;28;20422;-69
2022/12/05 08:56:22;;;;;;;3.60;2.50;;;3.70;99.90;;;;;;4996652;28;20529;-69
2022/12/05 08:58:48;;;;;;;6.93;4.03;;;3.80;99.90;;;;;;5012842;28;20274;-69
2022/12/05 09:01:19;;;;;;;6.20;3.03;;;3.80;99.90;;;;;;5012463;28;20206;-69
2022/12/05 09:03:46;;;;;;;8.60;3.60;;;3.90;99.90;;;;;;5013458;28;20271;-69
2022/12/05 09:06:11;;;;;;;6.03;2.40;;;4.00;99.90;;;;;;5010099;28;20600;-69
2022/12/05 09:08:37;;;;;;;6.83;3.63;;;4.00;99.90;;;;;;5012571;28;20536;-69
2022/12/05 09:11:11;;;;;;;5.87;3.07;;;4.10;99.90;;;;;;5013355;28;20201;-69
2022/12/05 09:13:37;;;;;;;5.70;3.20;;;4.10;99.90;;;;;;5011190;28;20618;-70
2022/12/05 09:16:07;;;;;;;4.67;2.70;;;4.20;99.90;;;;;;5005927;28;20469;-70
2022/12/05 09:18:33;;;;;;;10.63;3.43;;;4.20;99.90;;;;;;5011408;28;20187;-67
2022/12/05 09:21:07;;;;;;;5.60;2.67;;;4.20;99.90;;;;;;5015084;28;20500;-68
2022/12/05 09:23:33;;;;;;;4.83;2.83;;;4.20;99.90;;;;;;5006432;28;20519;-68
2022/12/05 09:26:02;;;;;;;7.47;3.60;;;4.20;99.90;;;;;;5011935;28;20512;-68
2022/12/05 09:28:28;;;;;;;4.17;2.40;;;4.20;99.90;;;;;;5011668;28;20713;-69
2022/12/05 09:31:03;;;;;;;6.30;3.27;;;4.20;99.90;;;;;;5008761;28;20444;-70
2022/12/05 09:33:31;;;;;;;6.53;2.90;;;4.20;99.90;;;;;;5009274;28;20965;-70
2022/12/05 09:35:57;;;;;;;6.83;2.93;;;4.20;99.90;;;;;;5008777;28;21002;-69
2022/12/05 09:38:23;;;;;;;10.47;2.50;;;4.20;99.90;;;;;;5008353;28;20553;-70
2022/12/05 09:42:03;;;;;;;5.60;2.53;;;4.30;99.90;;;;;;5008855;28;20241;-70
2022/12/05 09:44:21;;;;;;;5.97;3.10;;;4.30;99.90;;;;;;5006250;28;20429;-68
2022/12/05 09:47:12;;;;;;;3.67;2.20;;;4.30;99.90;;;;;;5008382;28;20434;-68
2022/12/05 09:50:05;;;;;;;6.40;2.53;;;4.40;99.90;;;;;;5017831;28;20425;-68
2022/12/05 09:52:32;;;;;;;6.83;3.17;;;4.30;99.90;;;;;;5005446;28;20957;-68
2022/12/05 09:55:11;;;;;;;9.93;3.27;;;4.30;99.90;;;;;;5008366;28;20442;-69
2022/12/05 09:57:48;;;;;;;5.27;2.53;;;4.30;99.90;;;;;;5008121;28;20437;-68
2022/12/05 10:00:14;;;;;;;7.10;2.83;;;4.30;99.90;;;;;;4990514;28;21017;-68
2022/12/05 10:03:07;;;;;;;5.10;3.60;;;4.30;99.90;;;;;;5008514;28;20851;-69
2022/12/05 10:05:45;;;;;;;6.00;2.93;;;4.30;99.90;;;;;;5005890;28;20584;-68
2022/12/05 10:08:16;;;;;;;4.93;2.70;;;4.30;99.90;;;;;;5007500;28;20922;-69
2022/12/05 10:10:53;;;;;;;9.67;3.30;;;4.30;99.90;;;;;;5008392;28;20833;-68
2022/12/05 10:13:54;;;;;;;6.53;3.70;;;4.30;99.90;;;;;;5013004;28;20437;-69
2022/12/05 10:16:34;;;;;;;5.87;3.23;;;4.30;99.90;;;;;;4972438;28;20977;-69
2022/12/05 10:19:09;;;;;;;5.87;2.77;;;4.30;99.90;;;;;;5016796;28;20797;-69
2022/12/05 10:21:55;;;;;;;6.60;2.87;;;4.40;99.90;;;;;;5016312;28;20425;-68
2022/12/05 10:24:46;;;;;;;5.40;2.77;;;4.50;99.90;;;;;;5012426;28;20428;-68
2022/12/05 10:27:23;;;;;;;6.23;2.90;;;4.60;99.90;;;;;;5007239;28;20483;-69
2022/12/05 10:30:03;;;;;;;3.27;2.40;;;4.70;99.90;;;;;;5010604;28;20433;-68
2022/12/05 10:32:52;;;;;;;3.60;2.40;;;4.80;99.90;;;;;;5010740;28;20541;-68
2022/12/05 10:35:38;;;;;;;7.10;2.50;;;4.80;99.90;;;;;;5009243;28;20461;-68
2022/12/05 10:38:23;;;;;;;3.57;1.73;;;4.80;99.90;;;;;;5012024;28;20485;-70
2022/12/05 10:40:51;;;;;;;5.00;2.43;;;4.80;99.90;;;;;;5013701;28;20465;-70
2022/12/05 10:43:27;;;;;;;7.13;3.13;;;4.80;99.90;;;;;;5020299;28;20903;-70
2022/12/05 10:45:54;;;;;;;5.33;2.80;;;4.70;99.90;;;;;;5014836;28;20472;-68
2022/12/05 10:48:21;;;;;;;7.83;2.80;;;4.70;99.90;;;;;;5013337;28;20422;-67
2022/12/05 10:50:59;;;;;;;3.10;2.13;;;4.70;99.90;;;;;;5010340;28;20473;-68
2022/12/05 10:53:42;;;;;;;3.90;2.30;;;4.70;99.90;;;;;;5010681;28;20423;-68
2022/12/05 10:56:34;;;;;;;2.73;2.00;;;4.70;99.90;;;;;;5012954;28;20428;-68
2022/12/05 10:58:59;;;;;;;5.77;2.90;;;4.70;99.90;;;;;;5012037;28;20438;-68
2022/12/05 11:01:25;;;;;;;4.00;2.37;;;4.60;99.90;;;;;;5012578;28;20426;-68
2022/12/05 11:04:00;;;;;;;6.97;2.57;;;4.60;99.90;;;;;;5018340;28;20261;-68
2022/12/05 11:06:27;;;;;;;3.63;2.40;;;4.70;99.90;;;;;;5012373;28;21164;-68
2022/12/05 11:09:04;;;;;;;6.80;2.37;;;4.70;99.90;;;;;;5011580;28;20729;-68
2022/12/05 11:11:32;;;;;;;5.63;2.50;;;4.90;99.90;;;;;;5010488;28;20468;-68
2022/12/05 11:14:05;;;;;;;3.90;2.00;;;5.00;99.90;;;;;;5012111;28;20426;-68
2022/12/05 11:16:31;;;;;;;11.43;3.97;;;5.20;99.90;;;;;;5009854;28;20437;-68
2022/12/05 11:19:20;;;;;;;10.13;3.80;;;5.30;99.90;;;;;;5007473;28;20451;-68
2022/12/05 11:21:45;;;;;;;9.00;3.57;;;5.40;99.90;;;;;;5006265;28;20442;-68
2022/12/05 11:24:26;;;;;;;11.60;4.40;;;5.40;99.90;;;;;;5011973;28;20438;-68
2022/12/05 11:26:52;;;;;;;3.70;2.10;;;5.50;99.90;;;;;;5017036;28;20170;-68
2022/12/05 11:29:36;;;;;;;6.77;2.87;;;5.50;99.90;;;;;;5024118;28;20948;-68
2022/12/05 11:32:18;;;;;;;5.70;3.13;;;5.40;99.90;;;;;;5025827;28;20417;-68
2022/12/05 11:34:44;;;;;;;15.17;4.17;;;5.40;99.90;;;;;;5020335;28;20484;-68
2022/12/05 11:37:17;;;;;;;6.50;3.03;;;5.40;99.90;;;;;;5023022;28;20914;-70
2022/12/05 11:39:42;;;;;;;6.20;2.80;;;5.40;99.90;;;;;;5009750;28;20189;-70
2022/12/05 11:42:20;;;;;;;6.97;3.23;;;5.50;99.90;;;;;;5011427;28;20505;-69
2022/12/05 11:44:57;;;;;;;3.50;1.83;;;5.60;99.90;;;;;;5016710;28;20294;-72
2022/12/05 11:47:38;;;;;;;3.10;1.93;;;5.50;99.90;;;;;;5012421;28;20430;-69
2022/12/05 11:50:17;;;;;;;4.07;2.23;;;5.70;99.90;;;;;;5011142;28;20438;-69
2022/12/05 11:53:13;;;;;;;6.17;2.43;;;5.60;99.90;;;;;;5008442;28;20422;-70
2022/12/05 11:56:05;;;;;;;3.63;2.20;;;5.70;99.90;;;;;;5006762;28;20457;-69
2022/12/05 11:59:07;;;;;;;3.63;2.07;;;5.70;99.90;;;;;;5007122;28;20445;-69
2022/12/05 12:02:03;;;;;;;8.33;2.67;;;5.70;99.90;;;;;;5008774;28;20436;-69
2022/12/05 12:04:51;;;;;;;3.40;2.03;;;5.60;99.90;;;;;;5003912;28;20472;-70
2022/12/05 12:07:35;;;;;;;5.43;2.80;;;5.60;99.90;;;;;;5009455;28;20410;-69
2022/12/05 12:10:16;;;;;;;4.47;2.00;;;5.60;99.90;;;;;;5009753;28;20434;-70
2022/12/05 12:12:50;;;;;;;3.00;1.93;;;5.60;99.90;;;;;;5008486;28;20801;-69
2022/12/05 12:15:28;;;;;;;4.67;2.47;;;5.80;99.90;;;;;;5009916;28;20429;-70
2022/12/05 12:18:06;;;;;;;5.10;2.67;;;6.00;99.90;;;;;;5011478;28;20533;-70
2022/12/05 12:20:55;;;;;;;3.27;1.60;;;6.30;99.90;;;;;;5015146;28;20469;-70
2022/12/05 12:23:21;;;;;;;4.50;2.40;;;6.40;99.90;;;;;;5010151;28;20418;-69
2022/12/05 12:26:05;;;;;;;4.93;2.87;;;6.30;99.90;;;;;;5011598;28;20473;-70
2022/12/05 12:28:46;;;;;;;4.67;2.23;;;6.30;99.90;;;;;;5007024;28;20183;-70
2022/12/05 12:31:11;;;;;;;7.57;2.47;;;6.10;99.90;;;;;;5002270;28;20450;-69
2022/12/05 12:33:45;;;;;;;3.90;1.80;;;6.10;99.90;;;;;;5010900;28;20414;-70
2022/12/05 12:36:32;;;;;;;4.30;2.20;;;6.00;99.90;;;;;;5010883;28;20182;-69
2022/12/05 12:39:16;;;;;;;2.53;1.60;;;6.00;99.90;;;;;;5010589;28;21032;-69
2022/12/05 12:41:45;;;;;;;3.47;1.97;;;5.90;99.90;;;;;;5004860;28;21077;-69
2022/12/05 12:44:29;;;;;;;1.77;1.33;;;5.80;99.90;;;;;;5011406;28;20433;-69
2022/12/05 12:46:58;;;;;;;2.93;1.57;;;5.70;99.90;;;;;;5021197;28;20414;-69
2022/12/05 12:49:45;;;;;;;2.63;1.37;;;5.70;99.90;;;;;;5011986;28;20444;-69
2022/12/05 12:52:17;;;;;;;4.70;1.83;;;5.60;99.90;;;;;;5011374;28;20442;-69
2022/12/05 12:55:04;;;;;;;2.70;1.57;;;5.60;99.90;;;;;;5018292;28;20860;-69
2022/12/05 12:57:54;;;;;;;2.90;1.80;;;5.60;99.90;;;;;;5013991;28;20952;-69
2022/12/05 13:00:39;;;;;;;4.63;2.23;;;5.50;99.90;;;;;;5023036;28;20514;-69
2022/12/05 13:03:11;;;;;;;3.30;1.57;;;5.50;99.90;;;;;;5024206;28;20909;-69
2022/12/05 13:05:55;;;;;;;2.77;1.63;;;5.50;99.90;;;;;;5020331;28;20469;-69
2022/12/05 13:08:47;;;;;;;4.13;2.17;;;5.50;99.90;;;;;;5024286;28;20604;-69
2022/12/05 13:11:15;;;;;;;3.97;2.23;;;5.50;99.90;;;;;;5018309;28;20513;-69
2022/12/05 13:13:52;;;;;;;2.67;1.53;;;5.50;99.90;;;;;;5020647;28;20422;-69
2022/12/05 13:16:29;;;;;;;3.90;1.70;;;5.50;99.90;;;;;;5027225;28;20464;-69
2022/12/05 13:18:56;;;;;;;3.90;2.37;;;5.50;99.90;;;;;;5006458;28;20866;-69
2022/12/05 13:21:23;;;;;;;4.30;1.87;;;5.50;99.90;;;;;;5014516;28;20429;-69
2022/12/05 13:23:53;;;;;;;4.80;1.87;;;5.50;99.90;;;;;;5017400;28;20410;-69